North Ogden, Utah
Current Conditions -  °F | °C
As of 11:53 AM on Friday 21 Nov 2014 (Local Time) from KOGD Reporting Station
Clear Clear  
Wind Chill: 45°   Ceiling: Unl
Heat Index: 47°   Visibility: 10mi
Dew Point: 22°   Wind: 5mph
Humidity: 37%   Direction: NA
Pressure: 30.03"   Gusts: NA
Location:  41.3178°N, 111.954°W
Report Text: KOGD 211853Z AUTO VRB04KT 10SM CLR 08/M06 A3003 RMK AO2 SLP164 T00831056 TSNO
Loading
Personal Weather Stations






























Interactive Weather Map New forecast layout! Learn more

10-Day Weather Forecast

Advertisements
Track Severe Weather on mobile